sensor_id;sensor_type;location;lat;lon;timestamp;temperature;humidity
5938;DHT22;2994;51.220;4.412;2023-02-13T00:00:36;11.82;64.84
5938;DHT22;2994;51.220;4.412;2023-02-13T00:03:01;11.82;65.05
5938;DHT22;2994;51.220;4.412;2023-02-13T00:05:27;11.83;64.58
5938;DHT22;2994;51.220;4.412;2023-02-13T00:07:52;11.77;64.66
5938;DHT22;2994;51.220;4.412;2023-02-13T00:10:18;11.76;64.59
5938;DHT22;2994;51.220;4.412;2023-02-13T00:12:43;11.77;64.79
5938;DHT22;2994;51.220;4.412;2023-02-13T00:15:09;11.76;64.56
5938;DHT22;2994;51.220;4.412;2023-02-13T00:17:35;11.75;64.69
5938;DHT22;2994;51.220;4.412;2023-02-13T00:20:00;11.73;65.26
5938;DHT22;2994;51.220;4.412;2023-02-13T00:22:26;11.70;65.24
5938;DHT22;2994;51.220;4.412;2023-02-13T00:24:51;11.70;65.08
5938;DHT22;2994;51.220;4.412;2023-02-13T00:27:16;11.66;64.79
5938;DHT22;2994;51.220;4.412;2023-02-13T00:29:42;11.66;64.87
5938;DHT22;2994;51.220;4.412;2023-02-13T00:32:08;11.67;65.15
5938;DHT22;2994;51.220;4.412;2023-02-13T00:34:33;11.56;65.63
5938;DHT22;2994;51.220;4.412;2023-02-13T00:36:59;11.58;65.28
5938;DHT22;2994;51.220;4.412;2023-02-13T00:39:24;11.58;65.39
5938;DHT22;2994;51.220;4.412;2023-02-13T00:41:49;11.56;65.46
5938;DHT22;2994;51.220;4.412;2023-02-13T00:44:15;11.55;65.47
5938;DHT22;2994;51.220;4.412;2023-02-13T00:46:40;11.52;65.33
5938;DHT22;2994;51.220;4.412;2023-02-13T00:49:06;11.49;65.53
5938;DHT22;2994;51.220;4.412;2023-02-13T00:51:31;11.47;65.58
5938;DHT22;2994;51.220;4.412;2023-02-13T00:53:57;11.45;65.66
5938;DHT22;2994;51.220;4.412;2023-02-13T00:56:22;11.34;65.96
5938;DHT22;2994;51.220;4.412;2023-02-13T00:58:48;11.38;65.92
5938;DHT22;2994;51.220;4.412;2023-02-13T01:01:13;11.39;65.79
5938;DHT22;2994;51.220;4.412;2023-02-13T01:03:39;11.34;65.81
5938;DHT22;2994;51.220;4.412;2023-02-13T01:06:05;11.33;65.91
5938;DHT22;2994;51.220;4.412;2023-02-13T01:08:31;11.31;65.88
5938;DHT22;2994;51.220;4.412;2023-02-13T01:10:56;11.30;65.78
5938;DHT22;2994;51.220;4.412;2023-02-13T01:13:22;11.30;65.65
5938;DHT22;2994;51.220;4.412;2023-02-13T01:15:47;11.24;66.24
5938;DHT22;2994;51.220;4.412;2023-02-13T01:18:14;11.22;66.26
5938;DHT22;2994;51.220;4.412;2023-02-13T01:20:41;11.22;66.04
5938;DHT22;2994;51.220;4.412;2023-02-13T01:23:08;11.18;66.08
5938;DHT22;2994;51.220;4.412;2023-02-13T01:25:34;11.17;66.50
5938;DHT22;2994;51.220;4.412;2023-02-13T01:27:59;11.15;66.41
5938;DHT22;2994;51.220;4.412;2023-02-13T01:30:25;11.13;66.43
5938;DHT22;2994;51.220;4.412;2023-02-13T01:32:50;11.11;66.40
5938;DHT22;2994;51.220;4.412;2023-02-13T01:35:16;11.09;66.40
5938;DHT22;2994;51.220;4.412;2023-02-13T01:37:42;11.04;66.42
5938;DHT22;2994;51.220;4.412;2023-02-13T01:40:10;11.04;66.52
5938;DHT22;2994;51.220;4.412;2023-02-13T01:42:36;10.99;66.69
5938;DHT22;2994;51.220;4.412;2023-02-13T01:45:13;10.99;66.56
5938;DHT22;2994;51.220;4.412;2023-02-13T01:47:55;10.97;66.49
5938;DHT22;2994;51.220;4.412;2023-02-13T01:50:23;10.96;66.76
5938;DHT22;2994;51.220;4.412;2023-02-13T01:52:54;10.95;66.81
5938;DHT22;2994;51.220;4.412;2023-02-13T01:55:22;10.92;66.67
5938;DHT22;2994;51.220;4.412;2023-02-13T01:57:53;10.92;66.70
5938;DHT22;2994;51.220;4.412;2023-02-13T02:00:21;10.89;66.99
5938;DHT22;2994;51.220;4.412;2023-02-13T02:02:50;10.87;66.94
5938;DHT22;2994;51.220;4.412;2023-02-13T02:05:18;10.84;66.87
5938;DHT22;2994;51.220;4.412;2023-02-13T02:07:46;10.81;66.91
5938;DHT22;2994;51.220;4.412;2023-02-13T02:10:15;10.79;66.88
5938;DHT22;2994;51.220;4.412;2023-02-13T02:15:25;10.69;67.43
5938;DHT22;2994;51.220;4.412;2023-02-13T02:17:51;10.69;67.26
5938;DHT22;2994;51.220;4.412;2023-02-13T02:38:00;10.55;68.20
5938;DHT22;2994;51.220;4.412;2023-02-13T02:44:04;10.52;68.14
5938;DHT22;2994;51.220;4.412;2023-02-13T02:49:38;10.45;68.24
5938;DHT22;2994;51.220;4.412;2023-02-13T02:55:45;10.41;68.36
5938;DHT22;2994;51.220;4.412;2023-02-13T03:01:06;10.37;68.42
5938;DHT22;2994;51.220;4.412;2023-02-13T03:03:51;10.36;68.45
5938;DHT22;2994;51.220;4.412;2023-02-13T03:06:45;10.33;68.44
5938;DHT22;2994;51.220;4.412;2023-02-13T03:09:15;10.29;68.40
5938;DHT22;2994;51.220;4.412;2023-02-13T03:12:03;10.25;68.46
5938;DHT22;2994;51.220;4.412;2023-02-13T03:14:52;10.24;68.41
5938;DHT22;2994;51.220;4.412;2023-02-13T03:17:18;10.22;68.56
5938;DHT22;2994;51.220;4.412;2023-02-13T03:23:16;10.12;68.80
5938;DHT22;2994;51.220;4.412;2023-02-13T03:29:06;10.10;69.00
5938;DHT22;2994;51.220;4.412;2023-02-13T03:31:56;10.07;68.89
5938;DHT22;2994;51.220;4.412;2023-02-13T03:34:30;10.00;69.04
5938;DHT22;2994;51.220;4.412;2023-02-13T03:37:27;9.98;69.02
5938;DHT22;2994;51.220;4.412;2023-02-13T03:40:20;9.95;69.05
5938;DHT22;2994;51.220;4.412;2023-02-13T03:42:54;9.95;69.06
5938;DHT22;2994;51.220;4.412;2023-02-13T03:45:27;9.90;69.30
5938;DHT22;2994;51.220;4.412;2023-02-13T03:48:14;9.88;69.48
5938;DHT22;2994;51.220;4.412;2023-02-13T03:51:01;9.85;69.52
5938;DHT22;2994;51.220;4.412;2023-02-13T03:53:29;9.83;69.49
5938;DHT22;2994;51.220;4.412;2023-02-13T03:55:58;9.75;70.28
5938;DHT22;2994;51.220;4.412;2023-02-13T03:58:46;9.72;70.23
5938;DHT22;2994;51.220;4.412;2023-02-13T04:01:33;9.74;70.18
5938;DHT22;2994;51.220;4.412;2023-02-13T04:09:07;9.72;70.21
5938;DHT22;2994;51.220;4.412;2023-02-13T04:12:32;9.71;70.16
5938;DHT22;2994;51.220;4.412;2023-02-13T04:14:58;9.69;70.25
5938;DHT22;2994;51.220;4.412;2023-02-13T04:17:32;9.66;70.28
5938;DHT22;2994;51.220;4.412;2023-02-13T04:19:58;9.64;70.35
5938;DHT22;2994;51.220;4.412;2023-02-13T04:22:24;9.64;70.23
5938;DHT22;2994;51.220;4.412;2023-02-13T04:24:50;9.63;70.30
5938;DHT22;2994;51.220;4.412;2023-02-13T04:27:16;9.63;70.32
5938;DHT22;2994;51.220;4.412;2023-02-13T04:29:42;9.63;70.37
5938;DHT22;2994;51.220;4.412;2023-02-13T04:32:10;9.61;70.15
5938;DHT22;2994;51.220;4.412;2023-02-13T04:34:35;9.56;70.53
5938;DHT22;2994;51.220;4.412;2023-02-13T04:37:01;9.53;70.71
5938;DHT22;2994;51.220;4.412;2023-02-13T04:39:26;9.55;70.49
5938;DHT22;2994;51.220;4.412;2023-02-13T04:41:52;9.51;70.61
5938;DHT22;2994;51.220;4.412;2023-02-13T04:44:17;9.53;70.58
5938;DHT22;2994;51.220;4.412;2023-02-13T04:46:43;9.52;70.47
5938;DHT22;2994;51.220;4.412;2023-02-13T04:49:09;9.47;70.82
5938;DHT22;2994;51.220;4.412;2023-02-13T04:51:34;9.47;70.79
5938;DHT22;2994;51.220;4.412;2023-02-13T04:54:00;9.41;71.07
5938;DHT22;2994;51.220;4.412;2023-02-13T04:56:25;9.36;71.50
5938;DHT22;2994;51.220;4.412;2023-02-13T04:58:51;9.39;71.17
5938;DHT22;2994;51.220;4.412;2023-02-13T05:01:17;9.41;70.97
5938;DHT22;2994;51.220;4.412;2023-02-13T05:03:42;9.38;71.07
5938;DHT22;2994;51.220;4.412;2023-02-13T05:06:08;9.33;71.27
5938;DHT22;2994;51.220;4.412;2023-02-13T05:08:34;9.27;71.56
5938;DHT22;2994;51.220;4.412;2023-02-13T05:10:59;9.31;71.48
5938;DHT22;2994;51.220;4.412;2023-02-13T05:13:25;9.33;71.07
5938;DHT22;2994;51.220;4.412;2023-02-13T05:15:50;9.30;71.24
5938;DHT22;2994;51.220;4.412;2023-02-13T05:18:17;9.29;71.31
5938;DHT22;2994;51.220;4.412;2023-02-13T05:20:43;9.27;71.32
5938;DHT22;2994;51.220;4.412;2023-02-13T05:23:13;9.27;71.16
5938;DHT22;2994;51.220;4.412;2023-02-13T05:25:48;9.26;71.19
5938;DHT22;2994;51.220;4.412;2023-02-13T05:28:14;9.23;71.31
5938;DHT22;2994;51.220;4.412;2023-02-13T05:30:58;9.19;71.26
5938;DHT22;2994;51.220;4.412;2023-02-13T05:33:24;9.17;71.19
5938;DHT22;2994;51.220;4.412;2023-02-13T05:35:50;9.11;71.44
5938;DHT22;2994;51.220;4.412;2023-02-13T05:38:15;9.09;71.39
5938;DHT22;2994;51.220;4.412;2023-02-13T05:40:41;9.07;71.35
5938;DHT22;2994;51.220;4.412;2023-02-13T05:43:06;9.07;71.20
5938;DHT22;2994;51.220;4.412;2023-02-13T05:45:31;9.03;71.43
5938;DHT22;2994;51.220;4.412;2023-02-13T05:47:57;8.96;71.45
5938;DHT22;2994;51.220;4.412;2023-02-13T05:50:22;8.95;71.52
5938;DHT22;2994;51.220;4.412;2023-02-13T05:52:48;8.85;71.99
5938;DHT22;2994;51.220;4.412;2023-02-13T05:55:13;8.87;72.06
5938;DHT22;2994;51.220;4.412;2023-02-13T05:57:38;8.77;72.37
5938;DHT22;2994;51.220;4.412;2023-02-13T06:00:04;8.76;72.46
5938;DHT22;2994;51.220;4.412;2023-02-13T06:02:30;8.73;72.59
5938;DHT22;2994;51.220;4.412;2023-02-13T06:04:56;8.71;72.58
5938;DHT22;2994;51.220;4.412;2023-02-13T06:07:21;8.66;72.36
5938;DHT22;2994;51.220;4.412;2023-02-13T06:09:46;8.56;72.51
5938;DHT22;2994;51.220;4.412;2023-02-13T06:12:12;8.57;72.56
5938;DHT22;2994;51.220;4.412;2023-02-13T06:14:37;8.49;72.59
5938;DHT22;2994;51.220;4.412;2023-02-13T06:17:03;8.45;72.72
5938;DHT22;2994;51.220;4.412;2023-02-13T06:19:28;8.34;72.82
5938;DHT22;2994;51.220;4.412;2023-02-13T06:21:54;8.34;72.71
5938;DHT22;2994;51.220;4.412;2023-02-13T06:24:19;8.34;72.67
5938;DHT22;2994;51.220;4.412;2023-02-13T06:26:44;8.18;72.98
5938;DHT22;2994;51.220;4.412;2023-02-13T06:29:10;8.17;72.60
5938;DHT22;2994;51.220;4.412;2023-02-13T06:31:37;8.16;72.52
5938;DHT22;2994;51.220;4.412;2023-02-13T06:34:02;8.11;72.41
5938;DHT22;2994;51.220;4.412;2023-02-13T06:36:28;8.07;72.36
5938;DHT22;2994;51.220;4.412;2023-02-13T06:38:54;8.03;72.37
5938;DHT22;2994;51.220;4.412;2023-02-13T06:41:19;8.01;72.48
5938;DHT22;2994;51.220;4.412;2023-02-13T06:43:45;7.92;72.79
5938;DHT22;2994;51.220;4.412;2023-02-13T06:46:10;7.89;72.74
5938;DHT22;2994;51.220;4.412;2023-02-13T06:48:36;7.91;72.56
5938;DHT22;2994;51.220;4.412;2023-02-13T06:51:01;7.91;72.06
5938;DHT22;2994;51.220;4.412;2023-02-13T06:53:27;7.84;72.18
5938;DHT22;2994;51.220;4.412;2023-02-13T06:55:54;7.81;72.34
5938;DHT22;2994;51.220;4.412;2023-02-13T06:58:20;7.79;71.88
5938;DHT22;2994;51.220;4.412;2023-02-13T07:00:46;7.77;72.13
5938;DHT22;2994;51.220;4.412;2023-02-13T07:03:12;7.81;72.04
5938;DHT22;2994;51.220;4.412;2023-02-13T07:05:41;7.60;73.06
5938;DHT22;2994;51.220;4.412;2023-02-13T07:08:08;7.64;73.07
5938;DHT22;2994;51.220;4.412;2023-02-13T07:10:41;7.50;73.95
5938;DHT22;2994;51.220;4.412;2023-02-13T07:13:08;7.60;73.15
5938;DHT22;2994;51.220;4.412;2023-02-13T07:15:35;7.57;73.25
5938;DHT22;2994;51.220;4.412;2023-02-13T07:18:01;7.50;73.60
5938;DHT22;2994;51.220;4.412;2023-02-13T07:20:27;7.57;73.45
5938;DHT22;2994;51.220;4.412;2023-02-13T07:22:57;7.53;73.61
5938;DHT22;2994;51.220;4.412;2023-02-13T07:25:23;7.52;73.48
5938;DHT22;2994;51.220;4.412;2023-02-13T07:27:48;7.41;73.65
5938;DHT22;2994;51.220;4.412;2023-02-13T07:30:14;7.39;73.67
5938;DHT22;2994;51.220;4.412;2023-02-13T07:32:39;7.37;73.81
5938;DHT22;2994;51.220;4.412;2023-02-13T07:35:05;7.29;74.03
5938;DHT22;2994;51.220;4.412;2023-02-13T07:37:30;7.33;73.90
5938;DHT22;2994;51.220;4.412;2023-02-13T07:39:56;7.42;73.87
5938;DHT22;2994;51.220;4.412;2023-02-13T07:42:21;7.58;73.25
5938;DHT22;2994;51.220;4.412;2023-02-13T07:44:47;7.52;73.90
5938;DHT22;2994;51.220;4.412;2023-02-13T07:47:12;7.43;74.15
5938;DHT22;2994;51.220;4.412;2023-02-13T07:49:38;7.48;73.92
5938;DHT22;2994;51.220;4.412;2023-02-13T07:52:04;7.58;73.38
5938;DHT22;2994;51.220;4.412;2023-02-13T07:54:30;7.57;73.48
5938;DHT22;2994;51.220;4.412;2023-02-13T07:56:56;7.43;73.70
5938;DHT22;2994;51.220;4.412;2023-02-13T07:59:21;7.43;73.63
5938;DHT22;2994;51.220;4.412;2023-02-13T08:01:47;7.50;73.50
5938;DHT22;2994;51.220;4.412;2023-02-13T08:04:12;7.52;73.56
5938;DHT22;2994;51.220;4.412;2023-02-13T08:06:39;7.65;73.06
5938;DHT22;2994;51.220;4.412;2023-02-13T08:09:04;7.71;73.05
5938;DHT22;2994;51.220;4.412;2023-02-13T08:11:48;7.74;72.98
5938;DHT22;2994;51.220;4.412;2023-02-13T08:14:21;7.76;73.05
5938;DHT22;2994;51.220;4.412;2023-02-13T08:16:47;7.82;72.80
5938;DHT22;2994;51.220;4.412;2023-02-13T08:19:13;7.84;72.82
5938;DHT22;2994;51.220;4.412;2023-02-13T08:21:38;7.92;72.54
5938;DHT22;2994;51.220;4.412;2023-02-13T08:24:05;7.97;72.31
5938;DHT22;2994;51.220;4.412;2023-02-13T08:26:31;8.08;72.10
5938;DHT22;2994;51.220;4.412;2023-02-13T08:28:57;8.14;71.96
5938;DHT22;2994;51.220;4.412;2023-02-13T08:31:22;8.16;72.08
5938;DHT22;2994;51.220;4.412;2023-02-13T08:33:48;8.16;72.00
5938;DHT22;2994;51.220;4.412;2023-02-13T08:36:13;8.28;71.69
5938;DHT22;2994;51.220;4.412;2023-02-13T08:38:38;8.20;72.12
5938;DHT22;2994;51.220;4.412;2023-02-13T08:41:04;8.27;72.18
5938;DHT22;2994;51.220;4.412;2023-02-13T08:43:29;8.31;72.19
5938;DHT22;2994;51.220;4.412;2023-02-13T08:45:58;8.45;71.63
5938;DHT22;2994;51.220;4.412;2023-02-13T08:48:25;8.44;71.74
5938;DHT22;2994;51.220;4.412;2023-02-13T08:50:50;8.59;71.30
5938;DHT22;2994;51.220;4.412;2023-02-13T08:53:16;8.63;71.29
5938;DHT22;2994;51.220;4.412;2023-02-13T08:55:41;8.72;71.10
5938;DHT22;2994;51.220;4.412;2023-02-13T08:58:07;8.78;70.93
5938;DHT22;2994;51.220;4.412;2023-02-13T09:00:32;8.86;70.95
5938;DHT22;2994;51.220;4.412;2023-02-13T09:03:01;8.93;70.61
5938;DHT22;2994;51.220;4.412;2023-02-13T09:05:27;8.97;70.54
5938;DHT22;2994;51.220;4.412;2023-02-13T09:07:53;9.04;70.47
5938;DHT22;2994;51.220;4.412;2023-02-13T09:10:18;9.09;69.96
5938;DHT22;2994;51.220;4.412;2023-02-13T09:12:44;9.15;69.71
5938;DHT22;2994;51.220;4.412;2023-02-13T09:15:15;9.20;69.71
5938;DHT22;2994;51.220;4.412;2023-02-13T09:17:41;9.22;69.69
5938;DHT22;2994;51.220;4.412;2023-02-13T09:20:06;9.25;69.40
5938;DHT22;2994;51.220;4.412;2023-02-13T09:22:32;9.33;69.04
5938;DHT22;2994;51.220;4.412;2023-02-13T09:24:57;9.36;69.19
5938;DHT22;2994;51.220;4.412;2023-02-13T09:27:25;9.41;68.85
5938;DHT22;2994;51.220;4.412;2023-02-13T09:29:50;9.47;69.16
5938;DHT22;2994;51.220;4.412;2023-02-13T09:32:15;9.50;68.98
5938;DHT22;2994;51.220;4.412;2023-02-13T09:34:41;9.53;69.07
5938;DHT22;2994;51.220;4.412;2023-02-13T09:37:06;9.59;68.97
5938;DHT22;2994;51.220;4.412;2023-02-13T09:39:32;9.62;68.83
5938;DHT22;2994;51.220;4.412;2023-02-13T09:41:59;9.67;68.71
5938;DHT22;2994;51.220;4.412;2023-02-13T09:44:35;9.71;68.75
5938;DHT22;2994;51.220;4.412;2023-02-13T09:47:04;9.76;68.46
5938;DHT22;2994;51.220;4.412;2023-02-13T09:49:34;9.77;68.74
5938;DHT22;2994;51.220;4.412;2023-02-13T09:52:01;9.80;68.39
5938;DHT22;2994;51.220;4.412;2023-02-13T09:54:27;9.84;68.23
5938;DHT22;2994;51.220;4.412;2023-02-13T09:59:41;9.98;68.26
5938;DHT22;2994;51.220;4.412;2023-02-13T10:11:30;10.16;67.65
5938;DHT22;2994;51.220;4.412;2023-02-13T10:14:07;10.19;67.90
5938;DHT22;2994;51.220;4.412;2023-02-13T10:16:48;10.24;67.90
5938;DHT22;2994;51.220;4.412;2023-02-13T10:19:20;10.25;67.82
5938;DHT22;2994;51.220;4.412;2023-02-13T10:21:53;10.35;67.30
5938;DHT22;2994;51.220;4.412;2023-02-13T10:27:21;10.44;67.10
5938;DHT22;2994;51.220;4.412;2023-02-13T10:30:04;10.50;67.32
5938;DHT22;2994;51.220;4.412;2023-02-13T10:32:58;10.54;66.91
5938;DHT22;2994;51.220;4.412;2023-02-13T10:38:15;10.62;66.88
5938;DHT22;2994;51.220;4.412;2023-02-13T10:40:51;10.59;66.46
5938;DHT22;2994;51.220;4.412;2023-02-13T10:43:20;10.67;66.77
5938;DHT22;2994;51.220;4.412;2023-02-13T10:46:06;10.72;66.79
5938;DHT22;2994;51.220;4.412;2023-02-13T10:49:04;10.75;66.69
5938;DHT22;2994;51.220;4.412;2023-02-13T10:54:47;10.73;66.52
5938;DHT22;2994;51.220;4.412;2023-02-13T10:57:30;10.85;66.59
5938;DHT22;2994;51.220;4.412;2023-02-13T11:00:24;10.81;66.91
5938;DHT22;2994;51.220;4.412;2023-02-13T11:02:52;10.96;66.31
5938;DHT22;2994;51.220;4.412;2023-02-13T11:05:27;11.00;66.29
5938;DHT22;2994;51.220;4.412;2023-02-13T11:07:54;11.05;66.13
5938;DHT22;2994;51.220;4.412;2023-02-13T11:10:22;11.09;65.88
5938;DHT22;2994;51.220;4.412;2023-02-13T11:12:48;11.19;65.75
5938;DHT22;2994;51.220;4.412;2023-02-13T11:15:21;11.26;65.48
5938;DHT22;2994;51.220;4.412;2023-02-13T11:17:48;11.24;65.82
5938;DHT22;2994;51.220;4.412;2023-02-13T11:20:37;11.33;65.48
5938;DHT22;2994;51.220;4.412;2023-02-13T11:26:02;11.36;65.62
5938;DHT22;2994;51.220;4.412;2023-02-13T11:28:29;11.42;65.20
5938;DHT22;2994;51.220;4.412;2023-02-13T11:33:54;11.58;64.82
5938;DHT22;2994;51.220;4.412;2023-02-13T11:36:24;11.57;65.04
5938;DHT22;2994;51.220;4.412;2023-02-13T11:39:20;11.45;64.21
5938;DHT22;2994;51.220;4.412;2023-02-13T11:41:47;11.61;64.23
5938;DHT22;2994;51.220;4.412;2023-02-13T11:44:25;11.41;64.02
5938;DHT22;2994;51.220;4.412;2023-02-13T11:46:53;11.71;63.63
5938;DHT22;2994;51.220;4.412;2023-02-13T11:49:22;11.70;63.34
5938;DHT22;2994;51.220;4.412;2023-02-13T11:51:50;11.77;63.24
5938;DHT22;2994;51.220;4.412;2023-02-13T11:54:43;11.85;63.36
5938;DHT22;2994;51.220;4.412;2023-02-13T11:57:23;11.51;64.11
5938;DHT22;2994;51.220;4.412;2023-02-13T11:59:51;11.81;63.04
5938;DHT22;2994;51.220;4.412;2023-02-13T12:04:43;11.90;62.49
5938;DHT22;2994;51.220;4.412;2023-02-13T12:07:22;11.69;62.95
5938;DHT22;2994;51.220;4.412;2023-02-13T12:10:00;11.96;62.39
5938;DHT22;2994;51.220;4.412;2023-02-13T12:12:57;12.04;62.86
5938;DHT22;2994;51.220;4.412;2023-02-13T12:15:27;12.10;62.70
5938;DHT22;2994;51.220;4.412;2023-02-13T12:20:33;11.86;63.31
5938;DHT22;2994;51.220;4.412;2023-02-13T12:23:06;12.04;62.92
5938;DHT22;2994;51.220;4.412;2023-02-13T12:25:59;12.05;62.61
5938;DHT22;2994;51.220;4.412;2023-02-13T12:37:27;12.29;61.64
5938;DHT22;2994;51.220;4.412;2023-02-13T12:45:29;12.38;61.17
5938;DHT22;2994;51.220;4.412;2023-02-13T12:48:09;12.33;61.95
5938;DHT22;2994;51.220;4.412;2023-02-13T12:53:53;12.37;60.97
5938;DHT22;2994;51.220;4.412;2023-02-13T12:59:16;12.50;61.43
5938;DHT22;2994;51.220;4.412;2023-02-13T13:08:30;12.51;61.82
5938;DHT22;2994;51.220;4.412;2023-02-13T13:26:46;12.57;61.15
5938;DHT22;2994;51.220;4.412;2023-02-13T13:29:20;12.71;60.76
5938;DHT22;2994;51.220;4.412;2023-02-13T13:32:07;12.76;60.89
5938;DHT22;2994;51.220;4.412;2023-02-13T13:34:37;12.74;60.65
5938;DHT22;2994;51.220;4.412;2023-02-13T13:37:17;12.67;60.94
5938;DHT22;2994;51.220;4.412;2023-02-13T13:51:01;12.89;59.67
5938;DHT22;2994;51.220;4.412;2023-02-13T13:53:27;13.04;59.17
5938;DHT22;2994;51.220;4.412;2023-02-13T14:01:26;13.16;60.09
5938;DHT22;2994;51.220;4.412;2023-02-13T14:03:59;12.84;59.38
5938;DHT22;2994;51.220;4.412;2023-02-13T14:09:41;12.88;59.64
5938;DHT22;2994;51.220;4.412;2023-02-13T14:14:55;13.07;58.82
5938;DHT22;2994;51.220;4.412;2023-02-13T14:20:34;13.14;58.51
5938;DHT22;2994;51.220;4.412;2023-02-13T14:23:13;13.33;58.00
5938;DHT22;2994;51.220;4.412;2023-02-13T14:25:41;13.34;58.45
5938;DHT22;2994;51.220;4.412;2023-02-13T14:28:22;13.26;58.44
5938;DHT22;2994;51.220;4.412;2023-02-13T14:30:48;13.34;58.03
5938;DHT22;2994;51.220;4.412;2023-02-13T14:33:29;13.24;58.07
5938;DHT22;2994;51.220;4.412;2023-02-13T14:36:19;13.40;57.93
5938;DHT22;2994;51.220;4.412;2023-02-13T14:38:55;13.15;58.97
5938;DHT22;2994;51.220;4.412;2023-02-13T14:44:22;13.10;58.81
5938;DHT22;2994;51.220;4.412;2023-02-13T14:46:50;13.35;58.03
5938;DHT22;2994;51.220;4.412;2023-02-13T14:49:24;13.49;57.98
5938;DHT22;2994;51.220;4.412;2023-02-13T14:51:54;13.44;57.94
5938;DHT22;2994;51.220;4.412;2023-02-13T14:57:05;13.60;57.74
5938;DHT22;2994;51.220;4.412;2023-02-13T14:59:34;13.64;57.51
5938;DHT22;2994;51.220;4.412;2023-02-13T15:02:19;13.55;57.73
5938;DHT22;2994;51.220;4.412;2023-02-13T15:05:20;13.47;58.07
5938;DHT22;2994;51.220;4.412;2023-02-13T15:08:00;13.64;58.35
5938;DHT22;2994;51.220;4.412;2023-02-13T15:13:00;13.52;57.82
5938;DHT22;2994;51.220;4.412;2023-02-13T15:15:33;13.41;58.04
5938;DHT22;2994;51.220;4.412;2023-02-13T15:18:02;13.47;58.03
5938;DHT22;2994;51.220;4.412;2023-02-13T15:20:35;13.66;57.80
5938;DHT22;2994;51.220;4.412;2023-02-13T15:23:03;13.70;57.58
5938;DHT22;2994;51.220;4.412;2023-02-13T15:25:36;13.73;57.81
5938;DHT22;2994;51.220;4.412;2023-02-13T15:28:23;13.60;57.79
5938;DHT22;2994;51.220;4.412;2023-02-13T15:31:00;13.67;57.76
5938;DHT22;2994;51.220;4.412;2023-02-13T15:33:30;13.58;57.96
5938;DHT22;2994;51.220;4.412;2023-02-13T15:36:00;13.60;57.80
5938;DHT22;2994;51.220;4.412;2023-02-13T15:38:35;13.70;57.51
5938;DHT22;2994;51.220;4.412;2023-02-13T15:41:06;13.65;58.52
5938;DHT22;2994;51.220;4.412;2023-02-13T15:43:38;13.74;58.01
5938;DHT22;2994;51.220;4.412;2023-02-13T15:46:16;13.75;58.78
5938;DHT22;2994;51.220;4.412;2023-02-13T15:48:43;13.69;58.93
5938;DHT22;2994;51.220;4.412;2023-02-13T15:51:39;13.60;58.34
5938;DHT22;2994;51.220;4.412;2023-02-13T15:54:19;13.31;58.67
5938;DHT22;2994;51.220;4.412;2023-02-13T15:56:47;13.43;58.29
5938;DHT22;2994;51.220;4.412;2023-02-13T15:59:14;13.45;58.28
5938;DHT22;2994;51.220;4.412;2023-02-13T16:01:41;13.58;57.82
5938;DHT22;2994;51.220;4.412;2023-02-13T16:04:13;13.51;57.74
5938;DHT22;2994;51.220;4.412;2023-02-13T16:06:43;13.68;57.65
5938;DHT22;2994;51.220;4.412;2023-02-13T16:11:49;13.66;57.69
5938;DHT22;2994;51.220;4.412;2023-02-13T16:14:18;13.59;58.23
5938;DHT22;2994;51.220;4.412;2023-02-13T16:19:32;13.56;58.13
5938;DHT22;2994;51.220;4.412;2023-02-13T16:22:06;13.54;59.43
5938;DHT22;2994;51.220;4.412;2023-02-13T16:24:38;13.47;59.25
5938;DHT22;2994;51.220;4.412;2023-02-13T16:27:12;13.47;59.21
5938;DHT22;2994;51.220;4.412;2023-02-13T16:29:46;13.43;59.45
5938;DHT22;2994;51.220;4.412;2023-02-13T16:32:20;13.35;59.45
5938;DHT22;2994;51.220;4.412;2023-02-13T16:34:51;13.05;59.60
5938;DHT22;2994;51.220;4.412;2023-02-13T16:37:29;13.22;59.60
5938;DHT22;2994;51.220;4.412;2023-02-13T16:39:55;13.29;59.01
5938;DHT22;2994;51.220;4.412;2023-02-13T16:42:21;13.35;58.81
5938;DHT22;2994;51.220;4.412;2023-02-13T16:44:47;13.38;58.58
5938;DHT22;2994;51.220;4.412;2023-02-13T16:47:22;13.40;58.96
5938;DHT22;2994;51.220;4.412;2023-02-13T16:49:55;13.40;58.84
5938;DHT22;2994;51.220;4.412;2023-02-13T16:52:23;13.36;59.50
5938;DHT22;2994;51.220;4.412;2023-02-13T16:54:56;13.33;59.61
5938;DHT22;2994;51.220;4.412;2023-02-13T16:57:26;13.31;59.53
5938;DHT22;2994;51.220;4.412;2023-02-13T17:00:00;13.30;59.83
5938;DHT22;2994;51.220;4.412;2023-02-13T17:02:35;13.27;59.59
5938;DHT22;2994;51.220;4.412;2023-02-13T17:07:41;13.25;59.83
5938;DHT22;2994;51.220;4.412;2023-02-13T17:10:26;13.20;60.43
5938;DHT22;2994;51.220;4.412;2023-02-13T17:12:54;13.17;60.16
5938;DHT22;2994;51.220;4.412;2023-02-13T17:15:22;13.15;60.28
5938;DHT22;2994;51.220;4.412;2023-02-13T17:17:48;13.10;61.12
5938;DHT22;2994;51.220;4.412;2023-02-13T17:20:31;13.04;61.01
5938;DHT22;2994;51.220;4.412;2023-02-13T17:22:59;12.99;60.96
5938;DHT22;2994;51.220;4.412;2023-02-13T17:25:26;12.92;61.18
5938;DHT22;2994;51.220;4.412;2023-02-13T17:27:54;12.87;61.73
5938;DHT22;2994;51.220;4.412;2023-02-13T17:30:22;12.79;61.69
5938;DHT22;2994;51.220;4.412;2023-02-13T17:32:49;12.74;61.98
5938;DHT22;2994;51.220;4.412;2023-02-13T17:35:17;12.70;62.18
5938;DHT22;2994;51.220;4.412;2023-02-13T17:37:43;12.63;62.29
5938;DHT22;2994;51.220;4.412;2023-02-13T17:40:15;12.57;62.29
5938;DHT22;2994;51.220;4.412;2023-02-13T17:42:42;12.53;62.50
5938;DHT22;2994;51.220;4.412;2023-02-13T17:45:13;12.48;62.46
5938;DHT22;2994;51.220;4.412;2023-02-13T17:47:39;12.44;63.12
5938;DHT22;2994;51.220;4.412;2023-02-13T17:50:05;12.41;62.99
5938;DHT22;2994;51.220;4.412;2023-02-13T17:52:31;12.38;63.36
5938;DHT22;2994;51.220;4.412;2023-02-13T17:54:57;12.27;63.47
5938;DHT22;2994;51.220;4.412;2023-02-13T17:57:22;12.36;63.18
5938;DHT22;2994;51.220;4.412;2023-02-13T17:59:48;12.38;63.37
5938;DHT22;2994;51.220;4.412;2023-02-13T18:02:20;12.37;63.53
5938;DHT22;2994;51.220;4.412;2023-02-13T18:04:49;12.34;63.51
5938;DHT22;2994;51.220;4.412;2023-02-13T18:07:17;12.31;63.80
5938;DHT22;2994;51.220;4.412;2023-02-13T18:09:43;12.28;63.65
5938;DHT22;2994;51.220;4.412;2023-02-13T18:12:21;12.26;63.67
5938;DHT22;2994;51.220;4.412;2023-02-13T18:14:48;12.25;63.37
5938;DHT22;2994;51.220;4.412;2023-02-13T18:17:14;12.22;63.62
5938;DHT22;2994;51.220;4.412;2023-02-13T18:19:40;12.20;63.82
5938;DHT22;2994;51.220;4.412;2023-02-13T18:22:06;12.20;63.69
5938;DHT22;2994;51.220;4.412;2023-02-13T18:24:37;12.18;63.58
5938;DHT22;2994;51.220;4.412;2023-02-13T18:27:03;12.17;63.76
5938;DHT22;2994;51.220;4.412;2023-02-13T18:29:29;12.15;63.91
5938;DHT22;2994;51.220;4.412;2023-02-13T18:31:55;12.13;63.89
5938;DHT22;2994;51.220;4.412;2023-02-13T18:34:22;12.11;64.11
5938;DHT22;2994;51.220;4.412;2023-02-13T18:36:49;12.10;64.09
5938;DHT22;2994;51.220;4.412;2023-02-13T18:39:15;12.07;64.21
5938;DHT22;2994;51.220;4.412;2023-02-13T18:41:41;12.06;64.13
5938;DHT22;2994;51.220;4.412;2023-02-13T18:44:07;12.03;64.21
5938;DHT22;2994;51.220;4.412;2023-02-13T18:46:34;12.02;64.24
5938;DHT22;2994;51.220;4.412;2023-02-13T18:48:59;12.01;64.22
5938;DHT22;2994;51.220;4.412;2023-02-13T18:51:25;11.99;64.36
5938;DHT22;2994;51.220;4.412;2023-02-13T18:53:50;11.97;64.35
5938;DHT22;2994;51.220;4.412;2023-02-13T18:56:16;11.93;64.11
5938;DHT22;2994;51.220;4.412;2023-02-13T18:58:41;11.91;64.30
5938;DHT22;2994;51.220;4.412;2023-02-13T19:01:12;11.91;64.59
5938;DHT22;2994;51.220;4.412;2023-02-13T19:03:39;11.89;64.53
5938;DHT22;2994;51.220;4.412;2023-02-13T19:06:06;11.87;64.63